ニューヨーク/JFK の空港の天気 - METARとTAF

ジョン・F・ケネディ国際空港 ( KJFK / JFK ) - アメリカ ニューヨーク州ニューヨーク
飛行場実況気象(Metar)
観測時間08/23 17:51 EDT (08/23 21:51 UTC)
風向・風速北 4m/s
視程10km以上
天気現象
少しの雲 雲底高度 1160m
全天の4割程度の雲 雲底高度 1680m
全天を覆う雲 雲底高度 5490m
気温23.3℃
湿度60%
気圧1015.5hPa
METARKJFK 232151Z 36008KT 10SM FEW038 SCT055 OVC180 23/15 A2999 RMK AO2 SLP155 T02330150
過去の天気等 Google飛行場航空写真 Wunderground天気予報

過去48時間のMETAR

飛行場予報(TAF)
発表時間: 8/23 15:13 EDT (8/23 19:13 UTC)
予報対象時間: 23日15時 EDT ~ 24日20時 EDT
風向・風速北 3m/s
視程10km以上
少しの雲 雲底高度 1070m
全天の4割程度の雲 雲底高度 3350m
全天を覆う雲 雲底高度 4270m
23日20時 EDT から
風向・風速北 5m/s
視程10km以上
全天の4割程度の雲 雲底高度 7620m
24日2時 EDT から
風向・風速北 6m/s
視程10km以上
少しの雲 雲底高度 7620m
24日12時 EDT から
風向・風速北東 5m/s
視程10km以上
少しの雲 雲底高度 7620m
KJFK 231913Z 2319/2424 36005KT P6SM FEW035 SCT110 OVC140
FM240000 36009KT P6SM SCT250
FM240600 01012KT P6SM FEW250
FM241600 04009KT P6SM FEW250